This is the latest recevied weather packets stored in our database for station/object M0SDM. If no packets are shown the sender has not sent any weather packets the latest 10 day(s).
| Time | Temp. | Humidity | Pressure | Rain* | Wind** | Luminosity | Snow |
|---|---|---|---|---|---|---|---|
| 1778173821 | 15° C | 56% | 1012.6 hPa | 0 mm | - | - | - |
| 1778172921 | 14.44° C | 55% | 1012.7 hPa | 0 mm | - | - | - |
| 1778172021 | 14.44° C | 55% | 1012.8 hPa | 0 mm | - | - | - |
| 1778171121 | 14.44° C | 54% | 1012.7 hPa | 0 mm | - | - | - |
| 1778170221 | 15.56° C | 51% | 1012.5 hPa | 0 mm | - | - | - |
| 1778169321 | 15.56° C | 50% | 1012.9 hPa | 0 mm | - | - | - |
| 1778168421 | 15° C | 51% | 1013.2 hPa | 0 mm | - | - | - |
| 1778167521 | 15° C | 56% | 1013.3 hPa | 0 mm | - | - | - |
| 1778166621 | 14.44° C | 57% | 1013.4 hPa | 0 mm | - | - | - |
| 1778165721 | 13.89° C | 59% | 1013.4 hPa | 0 mm | - | - | - |
| 1778164821 | 13.89° C | 59% | 1013.6 hPa | 0 mm | - | - | - |
| 1778163921 | 13.89° C | 59% | 1013 hPa | 0 mm | - | - | - |
| 1778163021 | 14.44° C | 57% | 1013.3 hPa | 0 mm | - | - | - |
| 1778162121 | 14.44° C | 57% | 1013.2 hPa | 0 mm | - | - | - |
| 1778161221 | 15.56° C | 52% | 1013.1 hPa | 0 mm | - | - | - |
| 1778160321 | 16.11° C | 52% | 1013.1 hPa | 0 mm | - | - | - |
| 1778159421 | 15° C | 55% | 1013.2 hPa | 0 mm | - | - | - |
| 1778158521 | 14.44° C | 56% | 1013.2 hPa | 0 mm | - | - | - |
| 1778157621 | 16.11° C | 51% | 1013.4 hPa | 0 mm | - | - | - |
| 1778156721 | 16.11° C | 53% | 1013.3 hPa | 0 mm | - | - | - |
| 1778155821 | 16.11° C | 54% | 1013.6 hPa | 0 mm | - | - | - |
| 1778154921 | 15° C | 57% | 1014 hPa | 0 mm | - | - | - |
| 1778154021 | 14.44° C | 59% | 1014.2 hPa | 0 mm | - | - | - |
| 1778153121 | 14.44° C | 62% | 1014.3 hPa | 0 mm | - | - | - |
| 1778152221 | 14.44° C | 61% | 1014.7 hPa | 0 mm | - | - | - |
* Rain latest hour (hover to see other rain measurements)
** Current wind speed in m/s (hover to see current wind gust speed)